Time;durP1;ratioP1;P1;durP2;ratioP2;P2;SDS_P1;SDS_P2;PMS_P1;PMS_P2;Temp;Humidity;BMP_temperature;BMP_pressure;BME280_temperature;BME280_humidity;BME280_pressure;Samples;Min_cycle;Max_cycle;Signal;HPM_P1;HPM_P2
2021/10/26 00:02:22;;;;;;;80.60;27.45;;;;;;;9.35;100.00;101862.94;5052392;28;20384;-84
2021/10/26 00:04:48;;;;;;;81.47;26.02;;;;;;;9.38;100.00;101856.56;5054133;28;20029;-83
2021/10/26 00:07:13;;;;;;;77.90;26.55;;;;;;;9.39;100.00;101847.66;5053518;28;20032;-83
2021/10/26 00:09:39;;;;;;;81.00;27.10;;;;;;;9.40;100.00;101852.00;5053971;28;20052;-84
2021/10/26 00:12:05;;;;;;;65.45;24.08;;;;;;;9.44;100.00;101860.63;5053752;28;20065;-83
2021/10/26 00:14:30;;;;;;;72.15;24.23;;;;;;;9.46;100.00;101861.34;5052664;28;20051;-83
2021/10/26 00:16:56;;;;;;;66.00;23.58;;;;;;;9.46;100.00;101862.19;5053645;28;20111;-83
2021/10/26 00:19:22;;;;;;;75.00;25.15;;;;;;;9.49;100.00;101872.63;5053152;28;20045;-84
2021/10/26 00:21:47;;;;;;;62.78;22.80;;;;;;;9.49;100.00;101869.09;5052507;28;20454;-83
2021/10/26 00:24:13;;;;;;;60.38;23.23;;;;;;;9.46;100.00;101869.31;5052742;28;20074;-83
2021/10/26 00:26:39;;;;;;;68.18;23.27;;;;;;;9.46;100.00;101870.16;5052354;28;20032;-84
2021/10/26 00:29:05;;;;;;;52.95;22.38;;;;;;;9.45;100.00;101868.47;5052426;28;20032;-84
2021/10/26 00:31:32;;;;;;;56.33;21.63;;;;;;;9.41;100.00;101861.66;5052729;28;20114;-85
2021/10/26 00:33:57;;;;;;;66.93;23.02;;;;;;;9.36;100.00;101874.44;5052312;28;20497;-84
2021/10/26 00:36:23;;;;;;;59.58;21.58;;;;;;;9.28;100.00;101869.63;5052817;28;20037;-85
2021/10/26 00:38:48;;;;;;;64.03;22.52;;;;;;;9.20;100.00;101874.63;5052011;28;20111;-84
2021/10/26 00:41:14;;;;;;;58.35;20.23;;;;;;;9.12;100.00;101883.13;5052488;28;20380;-84
2021/10/26 00:43:41;;;;;;;59.92;21.45;;;;;;;9.08;100.00;101881.63;5053133;28;20429;-84
2021/10/26 00:46:06;;;;;;;69.63;22.55;;;;;;;9.07;100.00;101879.06;5053585;28;20027;-84
2021/10/26 00:48:31;;;;;;;64.97;23.08;;;;;;;9.05;100.00;101876.53;5052944;28;20036;-83
2021/10/26 00:50:57;;;;;;;92.50;26.27;;;;;;;9.06;100.00;101887.97;5052917;28;20135;-84
2021/10/26 00:53:23;;;;;;;86.25;24.52;;;;;;;9.04;100.00;101888.09;5051374;28;20552;-84
2021/10/26 00:55:49;;;;;;;58.03;20.17;;;;;;;9.03;100.00;101885.53;5035088;28;20056;-83
2021/10/26 00:58:15;;;;;;;69.32;21.92;;;;;;;8.97;100.00;101879.69;5052521;28;20037;-85
2021/10/26 01:00:40;;;;;;;64.95;21.33;;;;;;;8.88;100.00;101887.41;5051793;28;20035;-83
2021/10/26 01:03:06;;;;;;;74.93;21.65;;;;;;;8.80;100.00;101887.94;5051434;28;20044;-84
2021/10/26 01:05:31;;;;;;;56.38;21.13;;;;;;;8.72;100.00;101885.78;5052474;28;20634;-84
2021/10/26 01:07:57;;;;;;;54.08;21.80;;;;;;;8.63;100.00;101887.25;5052675;28;20107;-84
2021/10/26 01:10:22;;;;;;;70.07;21.52;;;;;;;8.60;100.00;101883.94;5052033;28;20497;-84
2021/10/26 01:12:48;;;;;;;60.55;22.27;;;;;;;8.57;100.00;101894.72;5052340;28;20047;-83
2021/10/26 01:15:14;;;;;;;73.22;25.10;;;;;;;8.53;100.00;101887.94;5050589;28;20064;-84
2021/10/26 01:17:39;;;;;;;76.47;25.13;;;;;;;8.55;100.00;101891.34;5052628;28;20524;-83
2021/10/26 01:20:07;;;;;;;82.07;25.23;;;;;;;8.55;100.00;101883.38;5052703;28;20036;-84
2021/10/26 01:22:39;;;;;;;75.00;24.60;;;;;;;8.49;100.00;101879.31;5051824;28;20433;-84
2021/10/26 01:25:07;;;;;;;80.07;23.45;;;;;;;8.42;100.00;101884.16;5052767;28;20124;-84
2021/10/26 01:27:32;;;;;;;81.07;23.42;;;;;;;8.41;100.00;101886.91;5050977;28;20057;-84
2021/10/26 01:29:58;;;;;;;59.05;20.25;;;;;;;8.35;100.00;101889.97;5052433;28;20547;-84
2021/10/26 01:32:23;;;;;;;62.45;21.15;;;;;;;8.28;100.00;101885.06;5050801;28;20385;-84
2021/10/26 01:34:49;;;;;;;70.43;21.38;;;;;;;8.21;100.00;101878.44;5034706;28;20060;-84
2021/10/26 01:37:15;;;;;;;68.78;21.23;;;;;;;8.15;100.00;101886.78;5034822;28;20037;-84
2021/10/26 01:39:41;;;;;;;61.67;20.35;;;;;;;8.08;100.00;101881.00;5052475;28;20070;-84
2021/10/26 01:42:08;;;;;;;76.47;22.13;;;;;;;8.05;100.00;101883.03;5050856;28;20041;-84
2021/10/26 01:44:33;;;;;;;57.22;20.52;;;;;;;7.99;100.00;101883.41;5051900;28;20062;-84
2021/10/26 01:46:59;;;;;;;65.90;19.20;;;;;;;7.90;100.00;101885.69;5051089;28;20462;-84
2021/10/26 01:49:25;;;;;;;65.93;20.30;;;;;;;7.83;100.00;101894.09;5034128;28;20393;-85
2021/10/26 01:51:51;;;;;;;66.05;19.83;;;;;;;7.82;100.00;101893.22;5034672;28;20044;-85
2021/10/26 01:54:18;;;;;;;91.13;23.88;;;;;;;7.82;100.00;101900.34;5052213;28;20116;-88
2021/10/26 01:56:44;;;;;;;93.75;23.92;;;;;;;7.89;100.00;101899.03;5051180;28;20388;-85
2021/10/26 01:59:10;;;;;;;61.03;19.92;;;;;;;7.88;100.00;101906.13;5052462;28;20361;-84
2021/10/26 02:01:36;;;;;;;73.55;23.48;;;;;;;7.86;100.00;101904.50;5051782;28;20044;-84
2021/10/26 02:04:02;;;;;;;66.93;20.67;;;;;;;7.83;100.00;101902.91;5051204;28;20108;-84
2021/10/26 02:06:27;;;;;;;70.43;20.52;;;;;;;7.77;100.00;101904.13;5050512;28;20454;-84
2021/10/26 02:08:52;;;;;;;81.05;23.08;;;;;;;7.76;100.00;101904.22;5051037;28;20040;-84
2021/10/26 02:11:18;;;;;;;67.95;19.05;;;;;;;7.73;100.00;101901.75;5052185;28;20045;-84
2021/10/26 02:13:43;;;;;;;55.80;18.08;;;;;;;7.67;100.00;101897.69;5050391;28;20489;-84
2021/10/26 02:16:09;;;;;;;73.05;20.40;;;;;;;7.64;100.00;101905.81;5055468;28;20140;-84
2021/10/26 02:18:34;;;;;;;79.97;22.17;;;;;;;7.64;100.00;101903.16;5055362;28;20382;-84
2021/10/26 02:21:00;;;;;;;85.90;23.45;;;;;;;7.72;100.00;101903.56;5054765;28;20040;-84
2021/10/26 02:23:26;;;;;;;76.63;22.80;;;;;;;7.76;100.00;101906.88;5055484;28;20431;-84
2021/10/26 02:25:51;;;;;;;51.13;18.25;;;;;;;7.81;100.00;101899.50;5054744;28;20021;-85
2021/10/26 02:28:17;;;;;;;80.07;23.30;;;;;;;7.86;100.00;101913.31;5054585;28;20033;-84
2021/10/26 02:30:52;;;;;;;83.75;23.42;;;;;;;7.88;100.00;101910.56;5055600;28;20029;-84
2021/10/26 02:33:17;;;;;;;79.05;22.38;;;;;;;7.86;100.00;101904.50;5054387;28;20359;-85
2021/10/26 02:35:43;;;;;;;69.72;18.70;;;;;;;7.77;100.00;101914.72;5053980;28;20029;-84
2021/10/26 02:38:23;;;;;;;57.45;20.50;;;;;;;7.67;100.00;101907.44;5055452;28;20040;-85
2021/10/26 02:40:51;;;;;;;74.53;20.75;;;;;;;7.59;100.00;101915.84;5039442;28;20397;-84
2021/10/26 02:43:18;;;;;;;68.53;20.73;;;;;;;7.54;100.00;101916.13;5054387;28;20033;-84
2021/10/26 02:45:43;;;;;;;68.18;22.20;;;;;;;7.53;100.00;101919.72;5053919;28;20033;-83
2021/10/26 02:48:09;;;;;;;77.22;22.10;;;;;;;7.56;100.00;101916.06;5054408;28;20398;-84
2021/10/26 02:50:37;;;;;;;79.60;22.02;;;;;;;7.63;100.00;101919.16;5055180;28;20025;-84
2021/10/26 02:53:03;;;;;;;78.65;23.98;;;;;;;7.70;100.00;101921.38;5054438;28;20029;-85
2021/10/26 02:55:29;;;;;;;58.38;20.52;;;;;;;7.76;100.00;101931.59;5053381;28;20021;-85
2021/10/26 02:57:55;;;;;;;67.13;20.77;;;;;;;7.81;100.00;101919.81;5055258;28;20447;-85
2021/10/26 03:00:20;;;;;;;80.10;24.20;;;;;;;7.83;100.00;101921.44;5054346;28;20036;-84
2021/10/26 03:02:53;;;;;;;84.20;23.45;;;;;;;7.81;100.00;101920.69;5036896;28;20033;-84
2021/10/26 03:05:21;;;;;;;81.88;22.63;;;;;;;7.79;100.00;101919.09;5055389;28;20473;-83
2021/10/26 03:07:46;;;;;;;64.20;20.08;;;;;;;7.75;100.00;101915.78;5054665;28;20035;-84
2021/10/26 03:10:13;;;;;;;102.50;25.48;;;;;;;7.70;100.00;101908.13;5054025;28;20029;-85
2021/10/26 03:12:41;;;;;;;77.40;22.70;;;;;;;7.67;100.00;101907.44;5054962;28;20037;-85
2021/10/26 03:15:09;;;;;;;59.42;19.27;;;;;;;7.66;100.00;101905.72;5054759;28;20118;-85
2021/10/26 03:17:38;;;;;;;70.55;20.70;;;;;;;7.63;100.00;101904.13;5054680;28;20397;-86
2021/10/26 03:20:06;;;;;;;84.55;22.45;;;;;;;7.62;100.00;101907.72;5054790;28;20058;-85
2021/10/26 03:22:31;;;;;;;77.75;22.17;;;;;;;7.58;100.00;101900.91;5054433;28;20033;-84
2021/10/26 03:24:59;;;;;;;91.75;22.85;;;;;;;7.57;100.00;101915.13;5055388;28;20035;-85
2021/10/26 03:27:28;;;;;;;83.90;21.20;;;;;;;7.59;100.00;101910.56;5052492;28;20021;-85
2021/10/26 03:29:55;;;;;;;79.35;21.70;;;;;;;7.59;100.00;101910.56;5055910;28;20102;-84
2021/10/26 03:32:21;;;;;;;99.88;22.35;;;;;;;7.59;100.00;101905.25;5056491;28;20527;-84
2021/10/26 03:34:48;;;;;;;83.30;21.83;;;;;;;7.59;100.00;101902.63;5036275;28;20052;-85
2021/10/26 03:37:16;;;;;;;68.00;19.23;;;;;;;7.53;100.00;101906.47;5054636;28;20029;-85
2021/10/26 03:39:42;;;;;;;71.10;20.25;;;;;;;7.45;100.00;101911.41;5052857;28;20086;-84
2021/10/26 03:42:10;;;;;;;72.60;18.60;;;;;;;7.38;100.00;101910.91;5053338;28;20040;-84
2021/10/26 03:44:38;;;;;;;54.25;16.98;;;;;;;7.31;100.00;101920.16;5053707;28;20036;-84
2021/10/26 03:47:06;;;;;;;44.67;15.23;;;;;;;7.22;100.00;101916.25;5054276;28;20466;-84
2021/10/26 03:49:31;;;;;;;57.88;17.38;;;;;;;7.17;100.00;101922.78;5036590;28;20103;-85
2021/10/26 03:51:59;;;;;;;62.30;17.55;;;;;;;7.11;100.00;101923.16;5036582;28;20469;-84
2021/10/26 03:54:25;;;;;;;68.85;18.88;;;;;;;7.02;100.00;101925.38;5053992;28;20103;-85
2021/10/26 03:56:52;;;;;;;67.75;18.80;;;;;;;6.96;100.00;101924.91;5052548;28;20500;-85
2021/10/26 03:59:20;;;;;;;69.22;17.85;;;;;;;6.90;100.00;101926.09;5054191;28;20033;-87
2021/10/26 04:01:45;;;;;;;71.97;20.17;;;;;;;6.88;100.00;101931.47;5053336;28;20028;-86
2021/10/26 04:04:13;;;;;;;81.00;19.70;;;;;;;6.87;100.00;101936.88;5054145;28;20036;-85
2021/10/26 04:06:42;;;;;;;72.80;18.88;;;;;;;6.84;100.00;101937.03;5052234;28;20489;-85
2021/10/26 04:09:12;;;;;;;72.28;18.83;;;;;;;6.81;100.00;101934.56;5054267;28;20081;-85
2021/10/26 04:11:52;;;;;;;68.30;19.75;;;;;;;6.80;100.00;101946.09;5053584;28;20091;-85
2021/10/26 04:14:18;;;;;;;91.82;20.55;;;;;;;6.81;100.00;101937.22;5052870;28;20029;-85
2021/10/26 04:16:46;;;;;;;72.22;19.83;;;;;;;6.87;100.00;101943.00;5053418;28;20089;-85
2021/10/26 04:19:15;;;;;;;84.55;21.63;;;;;;;6.95;100.00;101950.50;5052534;28;20524;-84
2021/10/26 04:21:43;;;;;;;91.07;21.25;;;;;;;7.05;100.00;101953.47;5052872;28;20117;-84
2021/10/26 04:24:08;;;;;;;87.90;21.23;;;;;;;7.09;100.00;101949.72;5052461;28;20114;-84
2021/10/26 04:26:33;;;;;;;92.35;20.48;;;;;;;7.13;100.00;101945.91;5053374;28;20064;-88
2021/10/26 04:28:59;;;;;;;86.05;21.42;;;;;;;7.16;100.00;101937.81;5053466;28;20493;-87
2021/10/26 04:31:24;;;;;;;78.25;20.13;;;;;;;7.20;100.00;101944.63;5035836;28;20036;-85
2021/10/26 04:33:52;;;;;;;85.25;20.10;;;;;;;7.26;100.00;101954.00;5053012;28;20029;-86
2021/10/26 04:36:17;;;;;;;93.20;22.25;;;;;;;7.33;100.00;101949.19;5053346;28;20029;-85
2021/10/26 04:38:43;;;;;;;91.22;21.67;;;;;;;7.37;100.00;101951.56;5052478;28;20032;-85
2021/10/26 04:41:11;;;;;;;97.18;21.83;;;;;;;7.38;100.00;101955.09;5053205;28;20048;-85
2021/10/26 04:43:36;;;;;;;104.03;23.27;;;;;;;7.34;100.00;101953.56;5035256;28;20119;-85
2021/10/26 04:46:11;;;;;;;108.13;21.98;;;;;;;7.33;100.00;101955.34;5051845;28;20035;-85
2021/10/26 04:48:37;;;;;;;105.28;22.02;;;;;;;7.37;100.00;101950.72;5052640;28;20499;-84
2021/10/26 04:51:04;;;;;;;98.93;21.65;;;;;;;7.38;100.00;101963.88;5051846;28;20029;-85
2021/10/26 04:53:32;;;;;;;108.43;23.52;;;;;;;7.42;100.00;101967.19;5052578;28;20025;-84
2021/10/26 04:55:59;;;;;;;107.93;23.00;;;;;;;7.41;100.00;101973.44;5053071;28;20033;-84
2021/10/26 04:58:25;;;;;;;117.38;26.25;;;;;;;7.37;100.00;101972.75;5054056;28;20033;-85
2021/10/26 05:00:53;;;;;;;142.48;29.90;;;;;;;7.44;100.00;101967.94;5053216;28;20041;-84
2021/10/26 05:03:18;;;;;;;128.05;28.10;;;;;;;7.47;100.00;101970.41;5052687;28;20029;-84
2021/10/26 05:05:44;;;;;;;119.90;27.25;;;;;;;7.45;100.00;101968.78;5052257;28;20104;-85
2021/10/26 05:08:09;;;;;;;122.10;29.33;;;;;;;7.48;100.00;101973.91;5052740;28;20031;-85
2021/10/26 05:10:35;;;;;;;127.03;29.85;;;;;;;7.47;100.00;101977.53;5051599;28;20124;-84
2021/10/26 05:13:01;;;;;;;141.75;30.42;;;;;;;7.46;100.00;101970.50;5051864;28;20035;-85
2021/10/26 05:15:29;;;;;;;134.88;29.83;;;;;;;7.43;100.00;101976.00;5051473;28;20107;-85
2021/10/26 05:17:57;;;;;;;126.85;28.80;;;;;;;7.38;100.00;101979.75;5052014;28;20037;-81
2021/10/26 05:20:23;;;;;;;155.18;32.63;;;;;;;7.38;100.00;101979.75;5052502;28;20033;-82
2021/10/26 05:22:51;;;;;;;139.40;30.88;;;;;;;7.43;100.00;101984.78;5052121;28;20036;-84
2021/10/26 05:25:18;;;;;;;96.70;25.02;;;;;;;7.41;100.00;101984.03;5051689;28;20048;-83
2021/10/26 05:27:43;;;;;;;148.80;32.30;;;;;;;7.39;100.00;101996.50;5052263;28;20048;-74
2021/10/26 05:30:09;;;;;;;162.60;34.13;;;;;;;7.43;100.00;101994.53;5052247;28;20033;-79
2021/10/26 05:32:35;;;;;;;124.38;31.30;;;;;;;7.44;100.00;101986.50;5053113;28;20031;-80
2021/10/26 05:35:00;;;;;;;157.73;33.78;;;;;;;7.51;100.00;102005.50;5051818;28;20037;-82
2021/10/26 05:37:26;;;;;;;151.52;33.72;;;;;;;7.57;100.00;102005.16;5052717;28;20064;-82
2021/10/26 05:39:51;;;;;;;163.15;34.72;;;;;;;7.64;100.00;102005.63;5051645;28;20036;-82
2021/10/26 05:42:16;;;;;;;151.07;34.85;;;;;;;7.66;100.00;102011.69;5052240;28;20036;-86
2021/10/26 05:44:42;;;;;;;154.32;34.13;;;;;;;7.63;100.00;102007.44;5050874;28;20120;-85
2021/10/26 05:47:08;;;;;;;130.63;34.15;;;;;;;7.57;100.00;102013.09;5052558;28;20056;-84
2021/10/26 05:49:33;;;;;;;136.70;35.25;;;;;;;7.60;100.00;102007.63;5050659;28;20116;-81
2021/10/26 05:51:59;;;;;;;156.13;34.35;;;;;;;7.66;100.00;102003.75;5051713;28;20477;-81
2021/10/26 05:54:24;;;;;;;140.82;33.17;;;;;;;7.64;100.00;102000.34;5052118;28;20021;-81
2021/10/26 05:56:50;;;;;;;152.05;33.05;;;;;;;7.60;100.00;101999.69;5051728;28;20033;-82
2021/10/26 05:59:16;;;;;;;152.43;34.38;;;;;;;7.63;100.00;101995.97;5052201;28;20029;-83
2021/10/26 06:01:41;;;;;;;145.32;34.22;;;;;;;7.60;100.00;101997.03;5051989;28;20029;-85
2021/10/26 06:04:06;;;;;;;148.65;31.67;;;;;;;7.58;100.00;101993.59;5049970;28;20037;-83
2021/10/26 06:06:33;;;;;;;132.15;30.85;;;;;;;7.55;100.00;101988.50;5034280;28;20041;-84
2021/10/26 06:08:58;;;;;;;136.27;31.02;;;;;;;7.50;100.00;101991.41;5033901;28;20386;-84
2021/10/26 06:11:25;;;;;;;135.25;31.58;;;;;;;7.47;100.00;102001.34;5052044;28;20033;-86
2021/10/26 06:14:11;;;;;;;122.43;28.95;;;;;;;7.45;100.00;102004.09;5050536;28;20044;-85
2021/10/26 06:16:37;;;;;;;142.32;31.65;;;;;;;7.47;100.00;101988.13;5051768;28;20057;-85
2021/10/26 06:19:03;;;;;;;130.43;31.05;;;;;;;7.47;100.00;101991.59;5051147;28;20045;-86
2021/10/26 06:21:29;;;;;;;118.07;28.95;;;;;;;7.49;100.00;101999.47;5051994;28;20086;-84
2021/10/26 06:23:55;;;;;;;147.88;31.38;;;;;;;7.52;100.00;102000.13;5053322;28;20041;-85
2021/10/26 06:26:22;;;;;;;166.95;32.45;;;;;;;7.58;100.00;102001.56;5052196;28;20111;-86
2021/10/26 06:28:47;;;;;;;134.18;30.52;;;;;;;7.60;100.00;102007.63;5051836;28;20488;-85
2021/10/26 06:31:13;;;;;;;136.35;29.05;;;;;;;7.61;100.00;102011.97;5054456;28;20033;-85
2021/10/26 06:33:39;;;;;;;128.80;30.13;;;;;;;7.62;100.00;102011.03;5052320;28;20043;-87
2021/10/26 06:36:04;;;;;;;123.38;28.45;;;;;;;7.61;100.00;102019.06;5051181;28;20032;-85
2021/10/26 06:38:30;;;;;;;98.18;25.40;;;;;;;7.58;100.00;102020.09;5052050;28;20028;-84
2021/10/26 06:40:55;;;;;;;106.18;27.23;;;;;;;7.56;100.00;102019.34;5051062;28;20442;-85
2021/10/26 06:43:21;;;;;;;112.10;29.20;;;;;;;7.57;100.00;102031.66;5051889;28;20033;-85
2021/10/26 06:45:46;;;;;;;140.32;33.08;;;;;;;7.59;100.00;102027.09;5052028;28;20037;-87
2021/10/26 06:48:11;;;;;;;131.57;36.40;;;;;;;7.66;100.00;102016.97;5050959;28;20033;-85
2021/10/26 06:50:37;;;;;;;112.25;34.47;;;;;;;7.76;100.00;102026.97;5033801;28;20029;-87
2021/10/26 06:53:02;;;;;;;111.38;35.97;;;;;;;7.83;100.00;102030.09;5049886;28;20472;-86
2021/10/26 06:55:29;;;;;;;101.90;33.13;;;;;;;7.89;100.00;102026.22;5051260;28;20082;-85
2021/10/26 06:57:54;;;;;;;114.90;36.35;;;;;;;7.94;100.00;102032.06;5049927;28;20033;-84
2021/10/26 07:00:19;;;;;;;115.13;36.67;;;;;;;8.00;100.00;102029.09;5050675;28;20462;-84
2021/10/26 07:02:50;;;;;;;154.98;39.60;;;;;;;8.07;100.00;102025.09;5055255;28;20029;-86
2021/10/26 07:05:21;;;;;;;131.85;37.83;;;;;;;8.11;100.00;102034.56;5054907;28;20036;-84
2021/10/26 07:07:48;;;;;;;122.18;38.67;;;;;;;8.21;100.00;102037.53;5054145;28;20075;-76
2021/10/26 07:10:13;;;;;;;118.93;37.35;;;;;;;8.29;100.00;102031.75;5054645;28;20530;-86
2021/10/26 07:12:40;;;;;;;129.43;37.80;;;;;;;8.36;100.00;102040.16;5055229;28;20041;-87
2021/10/26 07:15:07;;;;;;;123.13;36.45;;;;;;;8.41;100.00;102040.72;5054485;28;20107;-87
2021/10/26 07:17:34;;;;;;;116.40;37.45;;;;;;;8.46;100.00;102043.97;5054898;28;20124;-83
2021/10/26 07:20:01;;;;;;;110.35;37.13;;;;;;;8.52;100.00;102054.19;5054134;28;20076;-83
2021/10/26 07:22:26;;;;;;;125.93;36.95;;;;;;;8.57;100.00;102046.81;5055081;28;20331;-89
2021/10/26 07:25:00;;;;;;;123.43;36.53;;;;;;;8.63;100.00;102043.78;5055020;28;20082;-84
2021/10/26 07:27:26;;;;;;;112.40;34.95;;;;;;;8.75;100.00;102054.56;5053817;28;20041;-85
2021/10/26 07:29:51;;;;;;;114.60;33.40;;;;;;;8.77;100.00;102048.19;5054825;28;20116;-85
2021/10/26 07:32:19;;;;;;;116.45;34.72;;;;;;;8.80;100.00;102058.59;5053968;28;20119;-88
2021/10/26 07:34:44;;;;;;;106.35;32.55;;;;;;;8.82;100.00;102059.38;5054754;28;20029;-87
2021/10/26 07:37:10;;;;;;;104.13;33.80;;;;;;;8.84;100.00;102067.25;5054123;28;20036;-85
2021/10/26 07:39:45;;;;;;;106.88;33.47;;;;;;;8.88;100.00;102065.25;5053372;28;20040;-85
2021/10/26 07:42:11;;;;;;;77.10;28.48;;;;;;;8.89;100.00;102078.41;5053650;28;20045;-89
2021/10/26 07:44:36;;;;;;;79.43;28.27;;;;;;;8.90;100.00;102060.69;5053249;28;20045;-85
2021/10/26 07:47:02;;;;;;;86.53;29.13;;;;;;;8.90;100.00;102060.69;5053939;28;20119;-86
2021/10/26 07:49:29;;;;;;;90.72;27.75;;;;;;;8.88;100.00;102055.47;5054681;28;20036;-89
2021/10/26 07:51:55;;;;;;;79.22;26.67;;;;;;;8.88;100.00;102062.59;5054605;28;20036;-87
2021/10/26 07:54:21;;;;;;;84.18;26.75;;;;;;;8.91;100.00;102060.59;5054069;28;20064;-87
2021/10/26 07:56:47;;;;;;;67.07;25.40;;;;;;;8.95;100.00;102055.94;5054338;28;20029;-90
2021/10/26 07:59:12;;;;;;;67.13;25.00;;;;;;;8.98;100.00;102048.63;5053829;28;20087;-89
2021/10/26 08:01:38;;;;;;;81.43;24.83;;;;;;;9.04;100.00;102049.19;5053213;28;20029;-84
2021/10/26 08:04:05;;;;;;;79.05;25.95;;;;;;;9.07;100.00;102051.63;5053512;28;20389;-89
2021/10/26 08:06:31;;;;;;;63.15;22.02;;;;;;;9.15;100.00;102059.94;5054069;28;20118;-86
2021/10/26 08:08:56;;;;;;;60.92;22.75;;;;;;;9.21;100.00;102058.69;5036184;28;20091;-83
2021/10/26 08:11:22;;;;;;;56.83;22.10;;;;;;;9.28;100.00;102055.53;5053463;28;20094;-84
2021/10/26 08:13:47;;;;;;;60.63;20.50;;;;;;;9.35;100.00;102062.16;5053379;28;20143;-91
2021/10/26 08:16:14;;;;;;;66.85;19.88;;;;;;;9.41;100.00;102076.84;5054018;28;20057;-89
2021/10/26 08:18:40;;;;;;;52.17;19.50;;;;;;;9.53;100.00;102073.38;5054685;28;20155;-91
2021/10/26 08:21:06;;;;;;;55.05;18.73;;;;;;;9.62;100.00;102079.03;5053993;28;20033;-91
2021/10/26 08:23:31;;;;;;;49.40;17.60;;;;;;;9.65;100.00;102077.00;5054104;28;20036;-90
2021/10/26 08:25:59;;;;;;;47.92;17.05;;;;;;;9.70;100.00;102071.38;5054261;28;20037;-87
2021/10/26 08:28:25;;;;;;;42.03;14.77;;;;;;;9.79;100.00;102062.81;5053180;28;20410;-88
2021/10/26 08:35:58;;;;;;;37.15;12.32;;;;;;;9.89;100.00;102063.84;5053649;28;20119;-86
2021/10/26 08:38:23;;;;;;;26.58;11.77;;;;;;;9.92;100.00;102069.94;5051734;28;20036;-84
2021/10/26 08:40:50;;;;;;;28.80;10.80;;;;;;;10.02;100.00;102066.53;5052213;28;20044;-83
2021/10/26 08:43:23;;;;;;;32.22;11.00;;;;;;;10.04;100.00;102069.09;5052864;28;20110;-85
2021/10/26 08:45:51;;;;;;;46.22;11.00;;;;;;;10.11;100.00;102065.06;5053637;28;20094;-86
2021/10/26 08:48:24;;;;;;;23.98;9.90;;;;;;;10.13;100.00;102064.94;5050480;28;20025;-81
2021/10/26 08:50:59;;;;;;;25.88;10.48;;;;;;;10.18;100.00;102057.50;5041163;28;20108;-86
2021/10/26 08:53:26;;;;;;;20.40;9.23;;;;;;;10.19;100.00;102056.53;5051159;28;20025;-87
2021/10/26 08:55:56;;;;;;;21.55;9.50;;;;;;;10.22;100.00;102057.16;5052402;28;20033;-85
2021/10/26 08:58:29;;;;;;;26.55;9.27;;;;;;;10.23;100.00;102060.69;5050492;28;20040;-83
2021/10/26 09:00:55;;;;;;;28.48;9.45;;;;;;;10.30;100.00;102056.66;5052034;28;20478;-83
2021/10/26 09:03:24;;;;;;;27.58;9.68;;;;;;;10.35;100.00;102064.34;5051585;28;20120;-83
2021/10/26 09:05:51;;;;;;;23.52;8.63;;;;;;;10.45;100.00;102060.06;5051002;28;20029;-87
2021/10/26 09:08:26;;;;;;;44.05;9.32;;;;;;;10.53;100.00;102056.88;5051516;28;20063;-83
2021/10/26 09:10:57;;;;;;;29.75;8.55;;;;;;;10.69;100.00;102059.25;5052068;28;20086;-84
2021/10/26 09:19:39;;;;;;;21.23;8.30;;;;;;;10.85;100.00;102053.69;5051319;28;20476;-85
2021/10/26 09:22:05;;;;;;;19.75;7.90;;;;;;;10.88;100.00;102059.66;5047457;28;20037;-86
2021/10/26 09:24:34;;;;;;;28.23;8.82;;;;;;;10.87;100.00;102067.78;5051566;28;20037;-87
2021/10/26 09:27:03;;;;;;;18.70;8.20;;;;;;;10.89;100.00;102074.66;5051615;28;20029;-87
2021/10/26 09:29:35;;;;;;;17.20;9.10;;;;;;;10.75;99.57;102066.84;5051073;28;20108;-82
2021/10/26 09:32:08;;;;;;;25.17;8.63;;;;;;;10.68;99.39;102077.06;5051706;28;20033;-81
2021/10/26 09:34:43;;;;;;;24.85;9.55;;;;;;;10.61;100.00;102077.59;5051453;28;20032;-82
2021/10/26 09:37:08;;;;;;;24.23;9.95;;;;;;;10.60;100.00;102079.44;5051303;28;20032;-85
2021/10/26 09:39:34;;;;;;;28.38;12.07;;;;;;;10.65;100.00;102076.44;5051555;28;20488;-83
2021/10/26 09:42:03;;;;;;;17.25;9.85;;;;;;;10.62;100.00;102069.50;5051691;28;20105;-86
2021/10/26 09:44:38;;;;;;;26.55;10.68;;;;;;;10.55;100.00;102071.78;5050908;28;20381;-83
2021/10/26 09:47:06;;;;;;;18.13;9.80;;;;;;;10.51;100.00;102066.75;5051589;28;20040;-85
2021/10/26 09:49:36;;;;;;;25.73;11.50;;;;;;;10.53;100.00;102068.34;5051422;28;20473;-89
2021/10/26 09:52:24;;;;;;;19.27;11.52;;;;;;;10.65;100.00;102057.81;5052144;28;20055;-88
2021/10/26 09:55:34;;;;;;;21.50;10.65;;;;;;;10.68;100.00;102062.91;5052001;28;20051;-85
2021/10/26 09:58:00;;;;;;;23.70;12.15;;;;;;;10.80;100.00;102056.69;5050297;28;20478;-87
2021/10/26 10:00:29;;;;;;;22.80;10.45;;;;;;;10.86;100.00;102044.75;5051423;28;20036;-86
2021/10/26 10:03:10;;;;;;;16.55;9.45;;;;;;;10.88;100.00;102043.69;5051447;28;20033;-89
2021/10/26 10:05:40;;;;;;;23.90;9.47;;;;;;;11.05;100.00;102044.28;5050527;28;20032;-88
2021/10/26 10:08:36;;;;;;;19.05;8.60;;;;;;;11.25;99.79;102040.97;5051741;28;20032;-84
2021/10/26 10:11:04;;;;;;;17.05;8.48;;;;;;;11.56;98.82;102044.00;5049575;28;20052;-87
2021/10/26 10:13:30;;;;;;;16.85;7.93;;;;;;;11.87;96.08;102049.66;5050987;28;20029;-84
2021/10/26 10:15:56;;;;;;;13.93;7.80;;;;;;;12.19;95.52;102048.16;5050951;28;20049;-82
2021/10/26 10:18:21;;;;;;;18.83;8.00;;;;;;;12.49;92.90;102047.56;5050976;28;20041;-84
2021/10/26 10:20:52;;;;;;;15.45;6.32;;;;;;;12.69;90.46;102049.47;5051408;28;20033;-83
2021/10/26 10:23:21;;;;;;;15.20;6.15;;;;;;;12.74;90.28;102046.44;5049645;28;20112;-85
2021/10/26 10:25:47;;;;;;;16.33;5.93;;;;;;;12.68;89.91;102041.59;5050978;28;20044;-80
2021/10/26 10:28:15;;;;;;;12.48;5.72;;;;;;;12.73;90.62;102049.22;5050351;28;20032;-83
2021/10/26 10:30:41;;;;;;;14.07;5.68;;;;;;;12.78;89.87;102039.00;5051193;28;20531;-84
2021/10/26 10:33:07;;;;;;;11.23;5.25;;;;;;;12.63;88.42;102046.44;5050985;28;20033;-86
2021/10/26 10:35:34;;;;;;;14.02;5.50;;;;;;;12.68;89.07;102046.94;5051054;28;20427;-84
2021/10/26 10:38:01;;;;;;;12.18;5.10;;;;;;;12.64;88.95;102040.97;5054928;28;20098;-84
2021/10/26 10:40:28;;;;;;;16.70;6.00;;;;;;;12.68;89.54;102049.59;5053990;28;20033;-80
2021/10/26 10:42:55;;;;;;;13.80;5.20;;;;;;;12.73;87.74;102043.88;5054891;28;20037;-83
2021/10/26 10:45:27;;;;;;;16.48;5.95;;;;;;;12.81;87.94;102039.63;5054192;28;20068;-81
2021/10/26 10:47:57;;;;;;;10.27;5.28;;;;;;;12.88;88.05;102042.63;5054326;28;20146;-78
2021/10/26 10:50:33;;;;;;;11.95;5.72;;;;;;;12.95;87.95;102038.50;5054541;28;20029;-85
2021/10/26 10:53:08;;;;;;;15.98;5.53;;;;;;;12.99;85.61;102039.13;5055394;28;20032;-83
2021/10/26 10:55:35;;;;;;;11.95;5.65;;;;;;;13.22;86.98;102045.22;5053106;28;20393;-86
2021/10/26 10:58:24;;;;;;;14.57;5.65;;;;;;;13.23;85.66;102041.59;5054433;28;20094;-86
2021/10/26 11:00:51;;;;;;;13.57;4.90;;;;;;;13.45;85.22;102045.16;5054409;28;20028;-88
2021/10/26 11:03:33;;;;;;;18.30;5.47;;;;;;;13.50;85.49;102045.63;5053869;28;20033;-90
2021/10/26 11:05:59;;;;;;;17.80;4.95;;;;;;;13.48;84.81;102050.25;5054904;28;20033;-87
2021/10/26 11:08:47;;;;;;;14.93;4.75;;;;;;;13.62;84.03;102047.25;5054021;28;20176;-87
2021/10/26 11:11:17;;;;;;;20.67;4.85;;;;;;;13.53;82.61;102045.38;5054646;28;20098;-87
2021/10/26 11:13:43;;;;;;;14.18;4.57;;;;;;;13.33;85.28;102044.31;5055994;28;20033;-90
2021/10/26 11:16:12;;;;;;;20.95;4.63;;;;;;;13.19;86.31;102035.63;5053214;28;20057;-86
2021/10/26 11:18:50;;;;;;;21.48;4.88;;;;;;;13.23;85.39;102034.41;5053732;28;20086;-82
2021/10/26 11:21:21;;;;;;;18.45;5.18;;;;;;;13.07;85.85;102030.47;5053712;28;20033;-78